Cosmopolis, Brazil
Current Conditions -  °F | °C
As of 10:00 AM on Tuesday 21 Oct 2014 (Local Time) from SBKP Reporting Station
Broken Clouds Broken Clouds  
Wind Chill: 66°   Ceiling: 8000
Heat Index: 66°   Visibility: 6mi
Dew Point: 55°   Wind: 21mph
Humidity: 68%   Direction: 150°SSE
Pressure: 30.18"   Gusts: NA
Location:  22.65°S, 47.2°W
Report Text: SBKP 211200Z 15018KT 9999 SCT023 BKN080 19/13 Q1022
Loading
Personal Weather Stations






























Interactive Weather Map
Tropical Storm Tracking
New forecast layout! Learn more

10-Day Weather Forecast

Advertisements
Track Severe Weather on mobile